Time;durP1;ratioP1;P1;durP2;ratioP2;P2;SDS_P1;SDS_P2;PMS_P1;PMS_P2;Temp;Humidity;BMP_temperature;BMP_pressure;BME280_temperature;BME280_humidity;BME280_pressure;Samples;Min_cycle;Max_cycle;Signal;HPM_P1;HPM_P2
2024/04/23 00:10:50;;;;;;;9.3;5.3;;;;;;;3.18;76.13;99225;;;;
2024/04/23 00:20:51;;;;;;;9.3;5.3;;;;;;;3.21;75.82;99203.333333333;;;;
2024/04/23 00:30:50;;;;;;;9.3;5.3;;;;;;;2.99;76.27;99188.333333333;;;;
2024/04/23 00:40:50;;;;;;;13;7.7;;;;;;;2.81;77;99196.666666667;;;;
2024/04/23 00:50:50;;;;;;;13;7.7;;;;;;;2.58;77.64;99196.666666667;;;;
2024/04/23 01:00:50;;;;;;;13;7.7;;;;;;;2.5;77.71;99201.666666667;;;;
2024/04/23 01:10:50;;;;;;;14.5;8;;;;;;;2.21;78.99;99193.333333333;;;;
2024/04/23 01:21:50;;;;;;;14.5;8;;;;;;;2.11;80.05;99185;;;;
2024/04/23 01:32:50;;;;;;;14.5;8;;;;;;;2.26;79.29;99185;;;;
2024/04/23 01:42:50;;;;;;;16.3;9.2;;;;;;;2.2;80.23;99175;;;;
2024/04/23 01:52:50;;;;;;;16.3;9.2;;;;;;;2.39;79.97;99173.333333333;;;;
2024/04/23 02:03:51;;;;;;;16.3;9.2;;;;;;;2.58;78.88;99160;;;;
2024/04/23 02:13:50;;;;;;;10.6;7;;;;;;;2.59;78.61;99151.666666667;;;;
2024/04/23 02:24:51;;;;;;;10.6;7;;;;;;;2.68;78.14;99150;;;;
2024/04/23 02:35:50;;;;;;;10.6;7;;;;;;;2.53;79.14;99143.333333333;;;;
2024/04/23 02:46:50;;;;;;;13.7;6.5;;;;;;;2.5;79.24;99131.666666667;;;;
2024/04/23 02:56:51;;;;;;;13.7;6.5;;;;;;;2.65;77.66;99116.666666667;;;;
2024/04/23 03:07:51;;;;;;;13.7;6.5;;;;;;;2.69;77.24;99113.333333333;;;;
2024/04/23 03:18:50;;;;;;;12;6.4;;;;;;;2.43;77.21;99105;;;;
2024/04/23 03:29:50;;;;;;;12;6.4;;;;;;;2.5;76.91;99086.666666667;;;;
2024/04/23 03:39:50;;;;;;;11.2;5.7;;;;;;;2.5;76.02;99088.333333333;;;;
2024/04/23 03:50:51;;;;;;;11.2;5.7;;;;;;;2.54;75.56;99086.666666667;;;;
2024/04/23 04:06:03;;;;;;;11.2;5.7;;;;;;;2.59;74.88;99086.666666667;;;;
2024/04/23 04:12:51;;;;;;;13;6.7;;;;;;;2.79;73.84;99098.333333333;;;;
2024/04/23 04:23:50;;;;;;;13;6.7;;;;;;;2.89;73.66;99105;;;;
2024/04/23 04:33:50;;;;;;;13;6.7;;;;;;;3.16;73.2;99113.333333333;;;;
2024/04/23 04:44:51;;;;;;;9.4;5.4;;;;;;;3.28;73.62;99105;;;;
2024/04/23 04:54:51;;;;;;;9.4;5.4;;;;;;;3.37;72.19;99091.666666667;;;;
2024/04/23 05:05:50;;;;;;;9.4;5.4;;;;;;;3.76;71.02;99086.666666667;;;;
2024/04/23 05:15:50;;;;;;;13.5;6.6;;;;;;;3.99;70.09;99080;;;;
2024/04/23 05:25:50;;;;;;;13.5;6.6;;;;;;;4.09;68.83;99081.666666667;;;;
2024/04/23 05:36:50;;;;;;;13.5;6.6;;;;;;;4.69;69.57;99080;;;;
2024/04/23 05:47:50;;;;;;;15.2;7.2;;;;;;;5.31;66.01;99073.333333333;;;;
2024/04/23 05:57:50;;;;;;;15.2;7.2;;;;;;;5.16;66.47;99056.666666667;;;;
2024/04/23 06:07:50;;;;;;;13.5;8.4;;;;;;;5.15;66.53;99050;;;;
2024/04/23 06:18:51;;;;;;;13.5;8.4;;;;;;;5.71;65.74;99043.333333333;;;;
2024/04/23 06:28:50;;;;;;;13.5;8.4;;;;;;;5.61;66.14;99035;;;;
2024/04/23 06:38:51;;;;;;;16.1;8.8;;;;;;;5.66;66.13;99030;;;;
2024/04/23 06:49:51;;;;;;;16.1;8.8;;;;;;;5.91;65.83;99040;;;;
2024/04/23 06:59:51;;;;;;;16.1;8.8;;;;;;;5.81;64.67;99036.666666667;;;;
2024/04/23 07:09:51;;;;;;;14.6;8.5;;;;;;;6.47;63.89;99020;;;;
2024/04/23 07:20:51;;;;;;;14.6;8.5;;;;;;;6.96;64.63;99020;;;;
2024/04/23 07:30:51;;;;;;;14.6;8.5;;;;;;;7.91;62.76;99026.666666667;;;;
2024/04/23 07:41:51;;;;;;;14.8;8.4;;;;;;;8.12;60.59;99028.333333333;;;;
2024/04/23 07:52:51;;;;;;;14.8;8.4;;;;;;;7.91;61.11;99030;;;;
2024/04/23 08:03:50;;;;;;;14.8;8.4;;;;;;;7.88;61.53;99000;;;;
2024/04/23 08:13:51;;;;;;;13.4;9.1;;;;;;;8.16;59.85;98993.333333333;;;;
2024/04/23 08:24:50;;;;;;;13.4;9.1;;;;;;;8.61;59.94;98978.333333333;;;;
2024/04/23 08:34:51;;;;;;;13.4;9.1;;;;;;;8.44;60.91;98965;;;;
2024/04/23 08:45:51;;;;;;;13.5;8.6;;;;;;;8.6;60.23;98958.333333333;;;;
2024/04/23 08:56:51;;;;;;;13.5;8.6;;;;;;;8.89;60.25;98955;;;;
2024/04/23 09:06:51;;;;;;;13.5;8.6;;;;;;;9.08;58.73;98943.333333333;;;;
2024/04/23 09:17:51;;;;;;;12.9;8.9;;;;;;;9.37;58.95;98923.333333333;;;;
2024/04/23 09:27:51;;;;;;;12.9;8.9;;;;;;;9.28;58.6;98921.666666667;;;;
2024/04/23 09:38:51;;;;;;;13.5;8.3;;;;;;;9.43;59.44;98905;;;;
2024/04/23 09:48:51;;;;;;;13.5;8.3;;;;;;;9.6;58.04;98895;;;;
2024/04/23 09:58:51;;;;;;;13.5;8.3;;;;;;;9.6;56.9;98888.333333333;;;;
2024/04/23 10:09:51;;;;;;;15.2;9.4;;;;;;;9.84;57.84;98865;;;;
2024/04/23 10:20:51;;;;;;;15.2;9.4;;;;;;;9.87;57.13;98841.666666667;;;;
2024/04/23 10:30:51;;;;;;;15.2;9.4;;;;;;;10.24;58.06;98833.333333333;;;;
2024/04/23 10:41:50;;;;;;;16.3;10.1;;;;;;;10.48;56.06;98821.666666667;;;;
2024/04/23 10:51:51;;;;;;;16.3;10.1;;;;;;;10.64;57.15;98806.666666667;;;;
2024/04/23 11:01:51;;;;;;;16.3;10.1;;;;;;;10.74;55.34;98788.333333333;;;;
2024/04/23 11:12:51;;;;;;;15.4;9.4;;;;;;;11.17;55.51;98773.333333333;;;;
2024/04/23 11:22:53;;;;;;;15.4;9.4;;;;;;;11.64;54.61;98755;;;;
2024/04/23 11:33:52;;;;;;;15.4;9.4;;;;;;;11.03;53.32;98736.666666667;;;;
2024/04/23 11:43:51;;;;;;;11.9;8.8;;;;;;;11.62;53.74;98718.333333333;;;;
2024/04/23 11:54:52;;;;;;;11.9;8.8;;;;;;;10.95;54.75;98706.666666667;;;;
2024/04/23 12:04:51;;;;;;;11.9;8.8;;;;;;;11.72;54.23;98691.666666667;;;;
2024/04/23 12:14:51;;;;;;;14.1;8.7;;;;;;;12.92;52.03;98670;;;;
2024/04/23 12:25:51;;;;;;;14.1;8.7;;;;;;;12.18;53.57;98651.666666667;;;;
2024/04/23 12:36:51;;;;;;;14.1;8.7;;;;;;;11.65;52.53;98633.333333333;;;;
2024/04/23 12:47:51;;;;;;;12.1;8.4;;;;;;;12.09;52.18;98623.333333333;;;;
2024/04/23 12:57:51;;;;;;;12.1;8.4;;;;;;;11.59;52.55;98608.333333333;;;;
2024/04/23 13:08:51;;;;;;;10.3;7.8;;;;;;;12.22;52.09;98593.333333333;;;;
2024/04/23 13:19:52;;;;;;;10.3;7.8;;;;;;;12.79;51.56;98578.333333333;;;;
2024/04/23 13:30:51;;;;;;;10.3;7.8;;;;;;;12.93;51.93;98551.666666667;;;;
2024/04/23 13:40:51;;;;;;;10.8;7.4;;;;;;;13;48.9;98531.666666667;;;;
2024/04/23 13:51:51;;;;;;;10.8;7.4;;;;;;;12.9;49.5;98521.666666667;;;;
2024/04/23 14:01:51;;;;;;;10.8;7.4;;;;;;;12.19;51.39;98513.333333333;;;;
2024/04/23 14:11:51;;;;;;;9.5;7.4;;;;;;;12.18;50.78;98506.666666667;;;;
2024/04/23 14:22:51;;;;;;;9.5;7.4;;;;;;;12.25;52.86;98498.333333333;;;;
2024/04/23 14:33:51;;;;;;;9.5;7.4;;;;;;;11.84;53.68;98478.333333333;;;;
2024/04/23 14:43:51;;;;;;;10;7.6;;;;;;;11.76;52.91;98445;;;;
2024/04/23 14:53:51;;;;;;;10;7.6;;;;;;;11.96;53.61;98415;;;;
2024/04/23 15:04:51;;;;;;;10;7.6;;;;;;;11.68;53.76;98391.666666667;;;;
2024/04/23 15:15:51;;;;;;;10;6.6;;;;;;;11.92;54.16;98401.666666667;;;;
2024/04/23 15:26:53;;;;;;;10;6.6;;;;;;;13.15;50.48;98376.666666667;;;;
2024/04/23 15:37:51;;;;;;;8;6.2;;;;;;;14.35;47.19;98375;;;;
2024/04/23 15:48:51;;;;;;;8;6.2;;;;;;;16.44;43.09;98361.666666667;;;;
2024/04/23 15:58:52;;;;;;;8;6.2;;;;;;;15.46;43.83;98361.666666667;;;;
2024/04/23 16:09:51;;;;;;;11.1;6.3;;;;;;;15.11;45.24;98341.666666667;;;;
2024/04/23 16:19:51;;;;;;;11.1;6.3;;;;;;;13.81;47.46;98336.666666667;;;;
2024/04/23 16:30:51;;;;;;;11.1;6.3;;;;;;;12.19;53.15;98321.666666667;;;;
2024/04/23 16:40:51;;;;;;;8.9;5.9;;;;;;;10.96;55.83;98310;;;;
2024/04/23 16:50:52;;;;;;;8.9;5.9;;;;;;;10.3;58.36;98318.333333333;;;;
2024/04/23 17:01:51;;;;;;;8.9;5.9;;;;;;;10.16;59.91;98313.333333333;;;;
2024/04/23 17:12:52;;;;;;;13.1;5.7;;;;;;;9.69;62.24;98296.666666667;;;;
2024/04/23 17:23:51;;;;;;;13.1;5.7;;;;;;;9.31;65.11;98301.666666667;;;;
2024/04/23 17:33:51;;;;;;;13.1;5.7;;;;;;;9.01;67.06;98296.666666667;;;;
2024/04/23 17:43:51;;;;;;;11;6.5;;;;;;;8.71;68.97;98291.666666667;;;;
2024/04/23 17:54:52;;;;;;;11;6.5;;;;;;;8.68;68.93;98275;;;;
2024/04/23 18:04:51;;;;;;;11;6.5;;;;;;;8.37;70.73;98276.666666667;;;;
2024/04/23 18:15:51;;;;;;;11.7;7.2;;;;;;;8.27;71.41;98276.666666667;;;;
2024/04/23 18:25:51;;;;;;;11.7;7.2;;;;;;;7.85;72.96;98280;;;;
2024/04/23 18:35:52;;;;;;;11.7;7.2;;;;;;;7.74;73.51;98288.333333333;;;;
2024/04/23 18:45:51;;;;;;;10.1;6;;;;;;;7.49;74.72;98285;;;;
2024/04/23 18:56:52;;;;;;;10.1;6;;;;;;;7.27;75.86;98283.333333333;;;;
2024/04/23 19:06:51;;;;;;;10.1;6;;;;;;;6.98;77.54;98271.666666667;;;;
2024/04/23 19:17:51;;;;;;;14.4;8.7;;;;;;;6.79;78.13;98251.666666667;;;;
2024/04/23 19:27:52;;;;;;;14.4;8.7;;;;;;;6.64;78.34;98238.333333333;;;;
2024/04/23 19:37:51;;;;;;;16.1;8.4;;;;;;;6.41;79.93;98223.333333333;;;;
2024/04/23 19:48:51;;;;;;;16.1;8.4;;;;;;;6.18;82.05;98213.333333333;;;;
2024/04/23 19:58:53;;;;;;;16.1;8.4;;;;;;;6.16;82.25;98208.333333333;;;;
2024/04/23 20:09:51;;;;;;;19;10.1;;;;;;;6.11;82.8;98196.666666667;;;;
2024/04/23 20:20:51;;;;;;;19;10.1;;;;;;;6.2;82.26;98176.666666667;;;;
2024/04/23 20:31:51;;;;;;;19;10.1;;;;;;;6.2;82.07;98163.333333333;;;;
2024/04/23 20:42:51;;;;;;;21.9;12.1;;;;;;;6.23;82.18;98160;;;;
2024/04/23 20:52:51;;;;;;;21.9;12.1;;;;;;;6.41;81.56;98155;;;;
2024/04/23 21:02:51;;;;;;;21.9;12.1;;;;;;;6.5;81.52;98156.666666667;;;;
2024/04/23 21:13:51;;;;;;;21.3;11.2;;;;;;;6.65;80.89;98138.333333333;;;;
2024/04/23 21:23:51;;;;;;;21.3;11.2;;;;;;;6.63;81.3;98126.666666667;;;;
2024/04/23 21:34:51;;;;;;;21.3;11.2;;;;;;;6.52;82.61;98113.333333333;;;;
2024/04/23 21:45:51;;;;;;;24.5;14.1;;;;;;;6.56;82.59;98081.666666667;;;;
2024/04/23 21:56:51;;;;;;;24.5;14.1;;;;;;;6.4;83.03;98066.666666667;;;;
2024/04/23 22:06:51;;;;;;;25.5;15.2;;;;;;;6.57;82.68;98058.333333333;;;;
2024/04/23 22:17:51;;;;;;;25.5;15.2;;;;;;;6.58;82.75;98030;;;;
2024/04/23 22:27:51;;;;;;;25.5;15.2;;;;;;;6.61;82.72;98016.666666667;;;;
2024/04/23 22:38:51;;;;;;;24.9;15;;;;;;;6.63;82.56;98018.333333333;;;;
2024/04/23 22:48:51;;;;;;;24.9;15;;;;;;;6.86;81.91;98011.666666667;;;;
2024/04/23 22:59:51;;;;;;;24.9;15;;;;;;;7.11;80.68;98006.666666667;;;;
2024/04/23 23:10:51;;;;;;;25.8;14.5;;;;;;;7.22;80.56;97996.666666667;;;;
2024/04/23 23:21:51;;;;;;;25.8;14.5;;;;;;;7.24;80.36;97970;;;;
2024/04/23 23:32:51;;;;;;;25.8;14.5;;;;;;;7.33;79.8;97940;;;;
2024/04/23 23:43:51;;;;;;;23.8;12.1;;;;;;;7.42;79.77;97920;;;;
2024/04/23 23:53:51;;;;;;;23.8;12.1;;;;;;;7.43;79.51;97913.333333333;;;;
